sensor_id;sensor_type;location;lat;lon;timestamp;temperature;humidity
29571;DHT22;16814;52.118;11.436;2023-10-31T00:01:36;10.50;99.90
29571;DHT22;16814;52.118;11.436;2023-10-31T00:04:02;10.60;99.90
29571;DHT22;16814;52.118;11.436;2023-10-31T00:06:29;10.60;99.90
29571;DHT22;16814;52.118;11.436;2023-10-31T00:08:55;10.70;99.90
29571;DHT22;16814;52.118;11.436;2023-10-31T00:11:21;10.80;99.90
29571;DHT22;16814;52.118;11.436;2023-10-31T00:13:48;10.80;99.90
29571;DHT22;16814;52.118;11.436;2023-10-31T00:16:15;10.90;99.90
29571;DHT22;16814;52.118;11.436;2023-10-31T00:18:49;10.90;99.90
29571;DHT22;16814;52.118;11.436;2023-10-31T00:21:16;11.00;99.90
29571;DHT22;16814;52.118;11.436;2023-10-31T00:24:02;11.00;99.90
29571;DHT22;16814;52.118;11.436;2023-10-31T00:26:30;11.10;99.90
29571;DHT22;16814;52.118;11.436;2023-10-31T00:28:57;11.10;99.90
29571;DHT22;16814;52.118;11.436;2023-10-31T00:31:24;11.10;99.90
29571;DHT22;16814;52.118;11.436;2023-10-31T00:33:49;11.10;99.90
29571;DHT22;16814;52.118;11.436;2023-10-31T00:36:15;11.10;99.90
29571;DHT22;16814;52.118;11.436;2023-10-31T00:38:44;11.10;99.90
29571;DHT22;16814;52.118;11.436;2023-10-31T00:41:11;11.10;99.90
29571;DHT22;16814;52.118;11.436;2023-10-31T00:43:36;11.10;99.90
29571;DHT22;16814;52.118;11.436;2023-10-31T00:46:03;11.10;99.90
29571;DHT22;16814;52.118;11.436;2023-10-31T00:48:31;11.10;99.90
29571;DHT22;16814;52.118;11.436;2023-10-31T00:51:07;11.10;99.90
29571;DHT22;16814;52.118;11.436;2023-10-31T00:53:34;11.10;99.90
29571;DHT22;16814;52.118;11.436;2023-10-31T00:55:59;11.00;99.90
29571;DHT22;16814;52.118;11.436;2023-10-31T00:58:26;11.10;99.90
29571;DHT22;16814;52.118;11.436;2023-10-31T01:00:55;11.00;99.90
29571;DHT22;16814;52.118;11.436;2023-10-31T01:03:21;11.10;99.90
29571;DHT22;16814;52.118;11.436;2023-10-31T01:05:48;11.10;99.90
29571;DHT22;16814;52.118;11.436;2023-10-31T01:08:15;11.10;99.90
29571;DHT22;16814;52.118;11.436;2023-10-31T01:10:40;11.10;99.90
29571;DHT22;16814;52.118;11.436;2023-10-31T01:13:07;11.10;99.90
29571;DHT22;16814;52.118;11.436;2023-10-31T01:15:36;11.00;99.90
29571;DHT22;16814;52.118;11.436;2023-10-31T01:18:01;11.00;99.90
29571;DHT22;16814;52.118;11.436;2023-10-31T01:20:29;11.10;99.90
29571;DHT22;16814;52.118;11.436;2023-10-31T01:22:56;11.10;99.90
29571;DHT22;16814;52.118;11.436;2023-10-31T01:25:24;11.10;99.90
29571;DHT22;16814;52.118;11.436;2023-10-31T01:27:50;11.10;99.90
29571;DHT22;16814;52.118;11.436;2023-10-31T01:30:17;11.10;99.90
29571;DHT22;16814;52.118;11.436;2023-10-31T01:32:44;11.00;99.90
29571;DHT22;16814;52.118;11.436;2023-10-31T01:35:11;11.10;99.90
29571;DHT22;16814;52.118;11.436;2023-10-31T01:37:37;11.10;99.90
29571;DHT22;16814;52.118;11.436;2023-10-31T01:40:03;11.00;99.90
29571;DHT22;16814;52.118;11.436;2023-10-31T01:42:29;11.10;99.90
29571;DHT22;16814;52.118;11.436;2023-10-31T01:44:56;11.10;99.90
29571;DHT22;16814;52.118;11.436;2023-10-31T01:47:23;11.10;99.90
29571;DHT22;16814;52.118;11.436;2023-10-31T01:49:51;11.20;99.90
29571;DHT22;16814;52.118;11.436;2023-10-31T01:52:17;11.20;99.90
29571;DHT22;16814;52.118;11.436;2023-10-31T01:54:45;11.20;99.90
29571;DHT22;16814;52.118;11.436;2023-10-31T01:57:14;11.10;99.90
29571;DHT22;16814;52.118;11.436;2023-10-31T01:59:39;11.10;99.90
29571;DHT22;16814;52.118;11.436;2023-10-31T02:02:05;11.10;99.90
29571;DHT22;16814;52.118;11.436;2023-10-31T02:04:33;11.10;99.90
29571;DHT22;16814;52.118;11.436;2023-10-31T02:07:01;11.00;99.90
29571;DHT22;16814;52.118;11.436;2023-10-31T02:09:26;11.00;99.90
29571;DHT22;16814;52.118;11.436;2023-10-31T02:11:55;11.00;99.90
29571;DHT22;16814;52.118;11.436;2023-10-31T02:14:28;11.00;99.90
29571;DHT22;16814;52.118;11.436;2023-10-31T02:16:57;11.00;99.90
29571;DHT22;16814;52.118;11.436;2023-10-31T02:19:23;11.00;99.90
29571;DHT22;16814;52.118;11.436;2023-10-31T02:21:50;11.00;99.90
29571;DHT22;16814;52.118;11.436;2023-10-31T02:24:17;11.00;99.90
29571;DHT22;16814;52.118;11.436;2023-10-31T02:26:45;11.00;99.90
29571;DHT22;16814;52.118;11.436;2023-10-31T02:29:12;11.00;99.90
29571;DHT22;16814;52.118;11.436;2023-10-31T02:31:40;11.00;99.90
29571;DHT22;16814;52.118;11.436;2023-10-31T02:34:07;11.00;99.90
29571;DHT22;16814;52.118;11.436;2023-10-31T02:36:32;11.00;99.90
29571;DHT22;16814;52.118;11.436;2023-10-31T02:39:00;11.00;99.90
29571;DHT22;16814;52.118;11.436;2023-10-31T02:41:27;11.00;99.90
29571;DHT22;16814;52.118;11.436;2023-10-31T02:43:54;11.00;99.90
29571;DHT22;16814;52.118;11.436;2023-10-31T02:46:21;10.90;99.90
29571;DHT22;16814;52.118;11.436;2023-10-31T02:48:47;10.90;99.90
29571;DHT22;16814;52.118;11.436;2023-10-31T02:51:13;11.00;99.90
29571;DHT22;16814;52.118;11.436;2023-10-31T02:53:40;11.00;99.90
29571;DHT22;16814;52.118;11.436;2023-10-31T02:56:07;11.00;99.90
29571;DHT22;16814;52.118;11.436;2023-10-31T02:58:34;11.00;99.90
29571;DHT22;16814;52.118;11.436;2023-10-31T03:01:00;11.00;99.90
29571;DHT22;16814;52.118;11.436;2023-10-31T03:03:27;11.00;99.90
29571;DHT22;16814;52.118;11.436;2023-10-31T03:05:55;11.00;99.90
29571;DHT22;16814;52.118;11.436;2023-10-31T03:08:20;10.90;99.90
29571;DHT22;16814;52.118;11.436;2023-10-31T03:10:48;10.90;99.90
29571;DHT22;16814;52.118;11.436;2023-10-31T03:13:18;10.90;99.90
29571;DHT22;16814;52.118;11.436;2023-10-31T03:15:50;10.90;99.90
29571;DHT22;16814;52.118;11.436;2023-10-31T03:18:16;10.90;99.90
29571;DHT22;16814;52.118;11.436;2023-10-31T03:20:47;10.90;99.90
29571;DHT22;16814;52.118;11.436;2023-10-31T03:23:14;10.90;99.90
29571;DHT22;16814;52.118;11.436;2023-10-31T03:25:41;10.90;99.90
29571;DHT22;16814;52.118;11.436;2023-10-31T03:28:17;11.00;99.90
29571;DHT22;16814;52.118;11.436;2023-10-31T03:30:47;10.90;99.90
29571;DHT22;16814;52.118;11.436;2023-10-31T03:33:14;10.90;99.90
29571;DHT22;16814;52.118;11.436;2023-10-31T03:35:42;10.90;99.90
29571;DHT22;16814;52.118;11.436;2023-10-31T03:38:09;10.90;99.90
29571;DHT22;16814;52.118;11.436;2023-10-31T03:40:37;10.90;99.90
29571;DHT22;16814;52.118;11.436;2023-10-31T03:43:04;10.90;99.90
29571;DHT22;16814;52.118;11.436;2023-10-31T03:45:31;10.90;99.90
29571;DHT22;16814;52.118;11.436;2023-10-31T03:47:57;10.90;99.90
29571;DHT22;16814;52.118;11.436;2023-10-31T03:50:25;11.00;99.90
29571;DHT22;16814;52.118;11.436;2023-10-31T03:52:52;11.00;99.90
29571;DHT22;16814;52.118;11.436;2023-10-31T03:55:17;10.90;99.90
29571;DHT22;16814;52.118;11.436;2023-10-31T03:57:44;10.90;99.90
29571;DHT22;16814;52.118;11.436;2023-10-31T04:00:11;10.90;99.90
29571;DHT22;16814;52.118;11.436;2023-10-31T04:02:39;10.90;99.90
29571;DHT22;16814;52.118;11.436;2023-10-31T04:05:07;10.90;99.90
29571;DHT22;16814;52.118;11.436;2023-10-31T04:07:35;10.90;99.90
29571;DHT22;16814;52.118;11.436;2023-10-31T04:10:00;11.00;99.90
29571;DHT22;16814;52.118;11.436;2023-10-31T04:12:27;11.10;99.90
29571;DHT22;16814;52.118;11.436;2023-10-31T04:14:54;11.10;99.90
29571;DHT22;16814;52.118;11.436;2023-10-31T04:17:21;11.00;99.90
29571;DHT22;16814;52.118;11.436;2023-10-31T04:19:48;11.00;99.90
29571;DHT22;16814;52.118;11.436;2023-10-31T04:22:15;11.00;99.90
29571;DHT22;16814;52.118;11.436;2023-10-31T04:24:42;11.00;99.90
29571;DHT22;16814;52.118;11.436;2023-10-31T04:27:09;11.00;99.90
29571;DHT22;16814;52.118;11.436;2023-10-31T04:29:36;11.00;99.90
29571;DHT22;16814;52.118;11.436;2023-10-31T04:32:06;11.00;99.90
29571;DHT22;16814;52.118;11.436;2023-10-31T04:34:31;11.00;99.90
29571;DHT22;16814;52.118;11.436;2023-10-31T04:36:57;11.00;99.90
29571;DHT22;16814;52.118;11.436;2023-10-31T04:39:25;11.00;99.90
29571;DHT22;16814;52.118;11.436;2023-10-31T04:41:54;11.00;99.90
29571;DHT22;16814;52.118;11.436;2023-10-31T04:44:19;11.00;99.90
29571;DHT22;16814;52.118;11.436;2023-10-31T04:46:46;11.00;99.90
29571;DHT22;16814;52.118;11.436;2023-10-31T04:49:14;11.00;99.90
29571;DHT22;16814;52.118;11.436;2023-10-31T04:51:43;11.00;99.90
29571;DHT22;16814;52.118;11.436;2023-10-31T04:54:12;11.00;99.90
29571;DHT22;16814;52.118;11.436;2023-10-31T04:56:39;11.10;99.90
29571;DHT22;16814;52.118;11.436;2023-10-31T04:59:06;11.10;99.90
29571;DHT22;16814;52.118;11.436;2023-10-31T05:01:34;11.10;99.90
29571;DHT22;16814;52.118;11.436;2023-10-31T05:03:59;11.10;99.90
29571;DHT22;16814;52.118;11.436;2023-10-31T05:06:29;11.40;99.90
29571;DHT22;16814;52.118;11.436;2023-10-31T05:08:54;11.50;99.90
29571;DHT22;16814;52.118;11.436;2023-10-31T05:11:20;11.80;99.90
29571;DHT22;16814;52.118;11.436;2023-10-31T05:13:48;12.00;99.90
29571;DHT22;16814;52.118;11.436;2023-10-31T05:16:15;12.00;99.90
29571;DHT22;16814;52.118;11.436;2023-10-31T05:18:40;12.10;99.90
29571;DHT22;16814;52.118;11.436;2023-10-31T05:21:06;12.00;99.90
29571;DHT22;16814;52.118;11.436;2023-10-31T05:23:33;12.00;99.90
29571;DHT22;16814;52.118;11.436;2023-10-31T05:26:00;12.00;99.90
29571;DHT22;16814;52.118;11.436;2023-10-31T05:28:34;11.90;99.90
29571;DHT22;16814;52.118;11.436;2023-10-31T05:31:00;11.80;99.90
29571;DHT22;16814;52.118;11.436;2023-10-31T05:33:27;11.70;99.90
29571;DHT22;16814;52.118;11.436;2023-10-31T05:36:00;11.60;99.90
29571;DHT22;16814;52.118;11.436;2023-10-31T05:38:25;11.60;99.90
29571;DHT22;16814;52.118;11.436;2023-10-31T05:40:53;11.40;99.90
29571;DHT22;16814;52.118;11.436;2023-10-31T05:43:20;11.30;99.90
29571;DHT22;16814;52.118;11.436;2023-10-31T05:45:47;11.30;99.90
29571;DHT22;16814;52.118;11.436;2023-10-31T05:48:14;11.30;99.90
29571;DHT22;16814;52.118;11.436;2023-10-31T05:50:42;11.20;99.90
29571;DHT22;16814;52.118;11.436;2023-10-31T05:53:09;11.20;99.90
29571;DHT22;16814;52.118;11.436;2023-10-31T05:55:34;11.20;99.90
29571;DHT22;16814;52.118;11.436;2023-10-31T05:58:04;11.20;99.90
29571;DHT22;16814;52.118;11.436;2023-10-31T06:00:32;11.20;99.90
29571;DHT22;16814;52.118;11.436;2023-10-31T06:02:58;11.20;99.90
29571;DHT22;16814;52.118;11.436;2023-10-31T06:05:24;11.20;99.90
29571;DHT22;16814;52.118;11.436;2023-10-31T06:07:51;11.10;99.90
29571;DHT22;16814;52.118;11.436;2023-10-31T06:10:19;11.10;99.90
29571;DHT22;16814;52.118;11.436;2023-10-31T06:12:47;11.10;99.90
29571;DHT22;16814;52.118;11.436;2023-10-31T06:15:13;11.10;99.90
29571;DHT22;16814;52.118;11.436;2023-10-31T06:17:44;11.10;99.90
29571;DHT22;16814;52.118;11.436;2023-10-31T06:20:12;11.00;99.90
29571;DHT22;16814;52.118;11.436;2023-10-31T06:22:40;11.00;99.90
29571;DHT22;16814;52.118;11.436;2023-10-31T06:25:06;10.90;99.90
29571;DHT22;16814;52.118;11.436;2023-10-31T06:27:33;10.90;99.90
29571;DHT22;16814;52.118;11.436;2023-10-31T06:30:01;10.80;99.90
29571;DHT22;16814;52.118;11.436;2023-10-31T06:32:26;10.80;99.90
29571;DHT22;16814;52.118;11.436;2023-10-31T06:34:52;10.80;99.90
29571;DHT22;16814;52.118;11.436;2023-10-31T06:37:19;10.80;99.90
29571;DHT22;16814;52.118;11.436;2023-10-31T06:39:46;10.80;99.90
29571;DHT22;16814;52.118;11.436;2023-10-31T06:42:14;10.70;99.90
29571;DHT22;16814;52.118;11.436;2023-10-31T06:44:41;10.70;99.90
29571;DHT22;16814;52.118;11.436;2023-10-31T06:47:07;10.70;99.90
29571;DHT22;16814;52.118;11.436;2023-10-31T06:49:33;10.70;99.90
29571;DHT22;16814;52.118;11.436;2023-10-31T06:51:59;10.80;99.90
29571;DHT22;16814;52.118;11.436;2023-10-31T06:54:25;10.70;99.90
29571;DHT22;16814;52.118;11.436;2023-10-31T06:56:52;10.60;99.90
29571;DHT22;16814;52.118;11.436;2023-10-31T06:59:19;10.70;99.90
29571;DHT22;16814;52.118;11.436;2023-10-31T07:01:46;10.70;99.90
29571;DHT22;16814;52.118;11.436;2023-10-31T07:04:13;10.70;99.90
29571;DHT22;16814;52.118;11.436;2023-10-31T07:06:46;10.70;99.90
29571;DHT22;16814;52.118;11.436;2023-10-31T07:09:12;10.70;99.90
29571;DHT22;16814;52.118;11.436;2023-10-31T07:11:38;10.70;99.90
29571;DHT22;16814;52.118;11.436;2023-10-31T07:14:06;10.70;99.90
29571;DHT22;16814;52.118;11.436;2023-10-31T07:16:33;10.70;99.90
29571;DHT22;16814;52.118;11.436;2023-10-31T07:19:01;10.70;99.90
29571;DHT22;16814;52.118;11.436;2023-10-31T07:21:28;10.70;99.90
29571;DHT22;16814;52.118;11.436;2023-10-31T07:23:55;10.70;99.90
29571;DHT22;16814;52.118;11.436;2023-10-31T07:26:22;10.70;99.90
29571;DHT22;16814;52.118;11.436;2023-10-31T07:28:47;10.70;99.90
29571;DHT22;16814;52.118;11.436;2023-10-31T07:31:16;10.70;99.90
29571;DHT22;16814;52.118;11.436;2023-10-31T07:33:49;10.70;99.90
29571;DHT22;16814;52.118;11.436;2023-10-31T07:36:16;10.70;99.90
29571;DHT22;16814;52.118;11.436;2023-10-31T07:38:45;10.80;99.90
29571;DHT22;16814;52.118;11.436;2023-10-31T07:41:11;10.80;99.90
29571;DHT22;16814;52.118;11.436;2023-10-31T07:43:38;10.80;99.90
29571;DHT22;16814;52.118;11.436;2023-10-31T07:46:06;10.80;99.90
29571;DHT22;16814;52.118;11.436;2023-10-31T07:48:33;10.90;99.90
29571;DHT22;16814;52.118;11.436;2023-10-31T07:51:00;10.90;99.90
29571;DHT22;16814;52.118;11.436;2023-10-31T07:53:28;10.90;99.90
29571;DHT22;16814;52.118;11.436;2023-10-31T07:55:53;10.90;99.90
29571;DHT22;16814;52.118;11.436;2023-10-31T07:58:20;11.00;99.90
29571;DHT22;16814;52.118;11.436;2023-10-31T08:00:47;11.00;99.90
29571;DHT22;16814;52.118;11.436;2023-10-31T08:03:15;11.10;99.90
29571;DHT22;16814;52.118;11.436;2023-10-31T08:05:42;11.20;99.90
29571;DHT22;16814;52.118;11.436;2023-10-31T08:08:09;11.20;99.90
29571;DHT22;16814;52.118;11.436;2023-10-31T08:10:35;11.30;99.90
29571;DHT22;16814;52.118;11.436;2023-10-31T08:13:02;11.30;99.90
29571;DHT22;16814;52.118;11.436;2023-10-31T08:15:28;11.30;99.90
29571;DHT22;16814;52.118;11.436;2023-10-31T08:17:55;11.30;99.90
29571;DHT22;16814;52.118;11.436;2023-10-31T08:20:23;11.40;99.90
29571;DHT22;16814;52.118;11.436;2023-10-31T08:22:50;11.40;99.90
29571;DHT22;16814;52.118;11.436;2023-10-31T08:25:17;11.40;99.90
29571;DHT22;16814;52.118;11.436;2023-10-31T08:27:45;11.40;99.90
29571;DHT22;16814;52.118;11.436;2023-10-31T08:30:15;11.40;99.90
29571;DHT22;16814;52.118;11.436;2023-10-31T08:32:40;11.50;99.90
29571;DHT22;16814;52.118;11.436;2023-10-31T08:35:08;11.40;99.90
29571;DHT22;16814;52.118;11.436;2023-10-31T08:37:34;11.50;99.90
29571;DHT22;16814;52.118;11.436;2023-10-31T08:40:03;11.40;99.90
29571;DHT22;16814;52.118;11.436;2023-10-31T08:42:32;11.50;99.90
29571;DHT22;16814;52.118;11.436;2023-10-31T08:45:04;11.40;99.90
29571;DHT22;16814;52.118;11.436;2023-10-31T08:47:31;11.40;99.90
29571;DHT22;16814;52.118;11.436;2023-10-31T08:49:58;11.40;99.90
29571;DHT22;16814;52.118;11.436;2023-10-31T08:52:25;11.50;99.90
29571;DHT22;16814;52.118;11.436;2023-10-31T08:54:53;11.50;99.90
29571;DHT22;16814;52.118;11.436;2023-10-31T08:57:25;11.60;99.90
29571;DHT22;16814;52.118;11.436;2023-10-31T08:59:50;11.60;99.90
29571;DHT22;16814;52.118;11.436;2023-10-31T09:02:16;11.70;99.90
29571;DHT22;16814;52.118;11.436;2023-10-31T09:04:44;11.80;99.90
29571;DHT22;16814;52.118;11.436;2023-10-31T09:07:11;11.90;99.90
29571;DHT22;16814;52.118;11.436;2023-10-31T09:09:38;11.80;99.90
29571;DHT22;16814;52.118;11.436;2023-10-31T09:12:04;11.80;99.90
29571;DHT22;16814;52.118;11.436;2023-10-31T09:14:31;11.80;99.90
29571;DHT22;16814;52.118;11.436;2023-10-31T09:16:58;11.80;99.90
29571;DHT22;16814;52.118;11.436;2023-10-31T09:19:25;11.80;99.90
29571;DHT22;16814;52.118;11.436;2023-10-31T09:21:52;11.70;99.90
29571;DHT22;16814;52.118;11.436;2023-10-31T09:24:20;11.70;99.90
29571;DHT22;16814;52.118;11.436;2023-10-31T09:26:49;11.70;99.90
29571;DHT22;16814;52.118;11.436;2023-10-31T09:29:16;11.70;99.90
29571;DHT22;16814;52.118;11.436;2023-10-31T09:31:44;11.80;99.90
29571;DHT22;16814;52.118;11.436;2023-10-31T09:34:10;12.00;99.90
29571;DHT22;16814;52.118;11.436;2023-10-31T09:36:39;12.10;99.90
29571;DHT22;16814;52.118;11.436;2023-10-31T09:39:07;12.10;99.90
29571;DHT22;16814;52.118;11.436;2023-10-31T09:41:33;12.10;99.90
29571;DHT22;16814;52.118;11.436;2023-10-31T09:44:00;12.10;99.90
29571;DHT22;16814;52.118;11.436;2023-10-31T09:46:29;12.20;99.90
29571;DHT22;16814;52.118;11.436;2023-10-31T09:49:01;12.20;99.90
29571;DHT22;16814;52.118;11.436;2023-10-31T09:51:33;12.20;99.90
29571;DHT22;16814;52.118;11.436;2023-10-31T09:54:02;12.20;99.90
29571;DHT22;16814;52.118;11.436;2023-10-31T09:56:30;12.10;99.90
29571;DHT22;16814;52.118;11.436;2023-10-31T09:59:01;12.10;99.90
29571;DHT22;16814;52.118;11.436;2023-10-31T10:01:29;12.60;99.90
29571;DHT22;16814;52.118;11.436;2023-10-31T10:03:57;12.00;99.90
29571;DHT22;16814;52.118;11.436;2023-10-31T10:06:33;12.00;99.90
29571;DHT22;16814;52.118;11.436;2023-10-31T10:09:00;12.00;99.90
29571;DHT22;16814;52.118;11.436;2023-10-31T10:11:29;11.90;99.90
29571;DHT22;16814;52.118;11.436;2023-10-31T10:13:58;11.90;99.90
29571;DHT22;16814;52.118;11.436;2023-10-31T10:16:31;11.80;99.90
29571;DHT22;16814;52.118;11.436;2023-10-31T10:19:20;11.80;99.90
29571;DHT22;16814;52.118;11.436;2023-10-31T10:21:57;11.70;99.90
29571;DHT22;16814;52.118;11.436;2023-10-31T10:24:24;11.60;99.90
29571;DHT22;16814;52.118;11.436;2023-10-31T10:26:51;11.50;99.90
29571;DHT22;16814;52.118;11.436;2023-10-31T10:29:19;11.30;99.90
29571;DHT22;16814;52.118;11.436;2023-10-31T10:31:44;11.30;99.90
29571;DHT22;16814;52.118;11.436;2023-10-31T10:34:12;11.20;99.90
29571;DHT22;16814;52.118;11.436;2023-10-31T10:36:47;11.20;99.90
29571;DHT22;16814;52.118;11.436;2023-10-31T10:39:19;11.20;99.90
29571;DHT22;16814;52.118;11.436;2023-10-31T10:42:01;11.20;99.90
29571;DHT22;16814;52.118;11.436;2023-10-31T10:44:37;11.30;99.90
29571;DHT22;16814;52.118;11.436;2023-10-31T10:47:06;11.40;99.90
29571;DHT22;16814;52.118;11.436;2023-10-31T10:49:35;11.40;99.90
29571;DHT22;16814;52.118;11.436;2023-10-31T10:52:38;11.50;99.90
29571;DHT22;16814;52.118;11.436;2023-10-31T10:55:24;11.70;99.90
29571;DHT22;16814;52.118;11.436;2023-10-31T11:00:21;12.20;99.90
29571;DHT22;16814;52.118;11.436;2023-10-31T11:02:52;12.40;99.90
29571;DHT22;16814;52.118;11.436;2023-10-31T11:05:23;12.50;99.90
29571;DHT22;16814;52.118;11.436;2023-10-31T11:07:49;12.50;99.90
29571;DHT22;16814;52.118;11.436;2023-10-31T11:10:18;12.40;99.90
29571;DHT22;16814;52.118;11.436;2023-10-31T11:12:44;12.30;99.90
29571;DHT22;16814;52.118;11.436;2023-10-31T11:15:14;12.30;99.90
29571;DHT22;16814;52.118;11.436;2023-10-31T11:17:44;12.20;99.90
29571;DHT22;16814;52.118;11.436;2023-10-31T11:20:13;12.20;99.90
29571;DHT22;16814;52.118;11.436;2023-10-31T11:22:46;12.20;99.90
29571;DHT22;16814;52.118;11.436;2023-10-31T11:25:19;12.10;99.90
29571;DHT22;16814;52.118;11.436;2023-10-31T11:27:47;12.10;99.90
29571;DHT22;16814;52.118;11.436;2023-10-31T11:30:29;12.00;99.90
29571;DHT22;16814;52.118;11.436;2023-10-31T11:32:58;11.90;99.90
29571;DHT22;16814;52.118;11.436;2023-10-31T11:35:28;11.90;99.90
29571;DHT22;16814;52.118;11.436;2023-10-31T11:38:09;11.90;99.90
29571;DHT22;16814;52.118;11.436;2023-10-31T11:40:46;11.80;99.90
29571;DHT22;16814;52.118;11.436;2023-10-31T11:43:24;11.80;99.90
29571;DHT22;16814;52.118;11.436;2023-10-31T11:45:52;11.80;99.90
29571;DHT22;16814;52.118;11.436;2023-10-31T11:48:48;11.70;99.90
29571;DHT22;16814;52.118;11.436;2023-10-31T11:51:17;11.70;99.90
29571;DHT22;16814;52.118;11.436;2023-10-31T11:53:44;11.70;99.90
29571;DHT22;16814;52.118;11.436;2023-10-31T11:56:11;11.60;99.90
29571;DHT22;16814;52.118;11.436;2023-10-31T11:58:40;11.70;99.90
29571;DHT22;16814;52.118;11.436;2023-10-31T12:01:10;11.60;99.90
29571;DHT22;16814;52.118;11.436;2023-10-31T12:03:44;11.60;99.90
29571;DHT22;16814;52.118;11.436;2023-10-31T12:06:18;11.70;99.90
29571;DHT22;16814;52.118;11.436;2023-10-31T12:08:49;11.70;99.90
29571;DHT22;16814;52.118;11.436;2023-10-31T12:11:22;11.70;99.90
29571;DHT22;16814;52.118;11.436;2023-10-31T12:14:03;11.80;99.90
29571;DHT22;16814;52.118;11.436;2023-10-31T12:16:32;11.80;99.90
29571;DHT22;16814;52.118;11.436;2023-10-31T12:19:06;11.80;99.90
29571;DHT22;16814;52.118;11.436;2023-10-31T12:21:48;11.90;99.90
29571;DHT22;16814;52.118;11.436;2023-10-31T12:24:18;11.90;99.90
29571;DHT22;16814;52.118;11.436;2023-10-31T12:26:45;11.90;99.90
29571;DHT22;16814;52.118;11.436;2023-10-31T12:29:14;12.00;99.90
29571;DHT22;16814;52.118;11.436;2023-10-31T12:31:54;11.90;99.90
29571;DHT22;16814;52.118;11.436;2023-10-31T12:34:22;12.00;99.90
29571;DHT22;16814;52.118;11.436;2023-10-31T12:36:51;12.00;99.90
29571;DHT22;16814;52.118;11.436;2023-10-31T12:39:24;12.00;99.90
29571;DHT22;16814;52.118;11.436;2023-10-31T12:41:52;11.90;99.90
29571;DHT22;16814;52.118;11.436;2023-10-31T12:44:26;11.90;99.90
29571;DHT22;16814;52.118;11.436;2023-10-31T12:46:55;11.90;99.90
29571;DHT22;16814;52.118;11.436;2023-10-31T12:49:22;11.90;99.90
29571;DHT22;16814;52.118;11.436;2023-10-31T12:52:03;11.90;99.90
29571;DHT22;16814;52.118;11.436;2023-10-31T12:54:37;11.90;99.90
29571;DHT22;16814;52.118;11.436;2023-10-31T12:57:10;12.00;99.90
29571;DHT22;16814;52.118;11.436;2023-10-31T12:59:38;12.00;99.90
29571;DHT22;16814;52.118;11.436;2023-10-31T13:02:06;12.10;99.90
29571;DHT22;16814;52.118;11.436;2023-10-31T13:04:35;12.10;99.90
29571;DHT22;16814;52.118;11.436;2023-10-31T13:07:04;12.10;99.90
29571;DHT22;16814;52.118;11.436;2023-10-31T13:09:31;12.00;99.90
29571;DHT22;16814;52.118;11.436;2023-10-31T13:12:07;12.00;99.90
29571;DHT22;16814;52.118;11.436;2023-10-31T13:14:36;12.00;99.90
29571;DHT22;16814;52.118;11.436;2023-10-31T13:17:05;12.00;99.90
29571;DHT22;16814;52.118;11.436;2023-10-31T13:19:32;12.00;99.90
29571;DHT22;16814;52.118;11.436;2023-10-31T13:22:00;12.00;99.90
29571;DHT22;16814;52.118;11.436;2023-10-31T13:24:31;12.00;99.90
29571;DHT22;16814;52.118;11.436;2023-10-31T13:26:58;12.00;99.90
29571;DHT22;16814;52.118;11.436;2023-10-31T13:29:32;12.00;99.90
29571;DHT22;16814;52.118;11.436;2023-10-31T13:31:58;12.00;99.90
29571;DHT22;16814;52.118;11.436;2023-10-31T13:34:25;12.00;99.90
29571;DHT22;16814;52.118;11.436;2023-10-31T13:36:53;11.90;99.90
29571;DHT22;16814;52.118;11.436;2023-10-31T13:39:21;12.00;99.90
29571;DHT22;16814;52.118;11.436;2023-10-31T13:41:47;12.00;99.90
29571;DHT22;16814;52.118;11.436;2023-10-31T13:44:14;12.00;99.90
29571;DHT22;16814;52.118;11.436;2023-10-31T13:46:40;12.00;99.90
29571;DHT22;16814;52.118;11.436;2023-10-31T13:49:08;12.10;99.90
29571;DHT22;16814;52.118;11.436;2023-10-31T13:51:34;11.90;99.90
29571;DHT22;16814;52.118;11.436;2023-10-31T13:54:03;12.30;99.90
29571;DHT22;16814;52.118;11.436;2023-10-31T13:56:30;12.00;99.90
29571;DHT22;16814;52.118;11.436;2023-10-31T13:58:57;11.90;99.90
29571;DHT22;16814;52.118;11.436;2023-10-31T14:01:24;12.00;99.90
29571;DHT22;16814;52.118;11.436;2023-10-31T14:03:55;11.90;99.90
29571;DHT22;16814;52.118;11.436;2023-10-31T14:06:26;11.90;99.90
29571;DHT22;16814;52.118;11.436;2023-10-31T14:08:57;11.80;99.90
29571;DHT22;16814;52.118;11.436;2023-10-31T14:11:23;11.80;99.90
29571;DHT22;16814;52.118;11.436;2023-10-31T14:13:50;11.80;99.90
29571;DHT22;16814;52.118;11.436;2023-10-31T14:16:16;11.80;99.90
29571;DHT22;16814;52.118;11.436;2023-10-31T14:18:43;11.80;99.90
29571;DHT22;16814;52.118;11.436;2023-10-31T14:21:10;11.80;99.90
29571;DHT22;16814;52.118;11.436;2023-10-31T14:23:38;11.80;99.90
29571;DHT22;16814;52.118;11.436;2023-10-31T14:26:03;11.80;99.90
29571;DHT22;16814;52.118;11.436;2023-10-31T14:28:32;11.80;99.90
29571;DHT22;16814;52.118;11.436;2023-10-31T14:30:59;11.80;99.90
29571;DHT22;16814;52.118;11.436;2023-10-31T14:33:27;11.80;99.90
29571;DHT22;16814;52.118;11.436;2023-10-31T14:35:56;11.80;99.90
29571;DHT22;16814;52.118;11.436;2023-10-31T14:38:25;11.80;99.90
29571;DHT22;16814;52.118;11.436;2023-10-31T14:40:53;11.80;99.90
29571;DHT22;16814;52.118;11.436;2023-10-31T14:43:19;11.80;99.90
29571;DHT22;16814;52.118;11.436;2023-10-31T14:45:46;11.80;99.90
29571;DHT22;16814;52.118;11.436;2023-10-31T14:48:13;11.80;99.90
29571;DHT22;16814;52.118;11.436;2023-10-31T14:50:39;11.80;99.90
29571;DHT22;16814;52.118;11.436;2023-10-31T14:53:06;11.80;99.90
29571;DHT22;16814;52.118;11.436;2023-10-31T14:55:32;11.80;99.90
29571;DHT22;16814;52.118;11.436;2023-10-31T14:58:00;11.80;99.90
29571;DHT22;16814;52.118;11.436;2023-10-31T15:00:28;11.80;99.90
29571;DHT22;16814;52.118;11.436;2023-10-31T15:02:56;11.80;99.90
29571;DHT22;16814;52.118;11.436;2023-10-31T15:05:23;11.80;99.90
29571;DHT22;16814;52.118;11.436;2023-10-31T15:07:50;11.80;99.90
29571;DHT22;16814;52.118;11.436;2023-10-31T15:10:17;11.80;99.90
29571;DHT22;16814;52.118;11.436;2023-10-31T15:12:47;11.80;99.90
29571;DHT22;16814;52.118;11.436;2023-10-31T15:15:17;11.70;99.90
29571;DHT22;16814;52.118;11.436;2023-10-31T15:17:43;11.80;99.90
29571;DHT22;16814;52.118;11.436;2023-10-31T15:20:11;11.70;99.90
29571;DHT22;16814;52.118;11.436;2023-10-31T15:22:45;11.70;99.90
29571;DHT22;16814;52.118;11.436;2023-10-31T15:25:15;11.70;99.90